Time,TemperatureF,DewpointF,PressureIn,WindDirection,WindDirectionDegrees,WindSpeedMPH,WindSpeedGustMPH,Humidity,HourlyPrecipIn,Conditions,Clouds,dailyrainin,SolarRadiationWatts/m^2,SoftwareType,DateUTC
2013-10-25 00:24:00,33.0,32.0,-100.00,WNW,288,4.0,7.0,96,0.00,,,0.27,0.000000,,2013-10-25 04:24:00,
2013-10-25 00:34:00,33.0,32.0,-100.00,WNW,288,4.0,7.0,96,0.00,,,0.27,0.000000,,2013-10-25 04:34:00,
2013-10-25 00:44:00,33.0,32.0,-100.00,WNW,288,4.0,7.0,96,0.00,,,0.27,0.000000,,2013-10-25 04:44:00,
2013-10-25 00:54:00,33.0,32.0,-100.00,WNW,288,4.0,7.0,96,0.00,,,0.27,0.000000,,2013-10-25 04:54:00,
2013-10-25 01:03:00,33.0,32.0,-100.00,WNW,288,4.0,7.0,96,0.00,,,0.27,0.000000,,2013-10-25 05:03:00,
2013-10-25 01:42:00,33.0,32.0,-100.00,WNW,290,4.0,8.0,95,0.00,,,0.27,0.000000,,2013-10-25 05:42:00,
2013-10-25 01:51:00,33.0,32.0,-100.00,WNW,290,4.0,8.0,95,0.00,,,0.27,0.000000,,2013-10-25 05:51:00,
2013-10-25 02:01:00,33.0,32.0,-100.00,WNW,290,4.0,8.0,95,0.00,,,0.27,0.000000,,2013-10-25 06:01:00,
2013-10-25 02:41:00,33.0,32.0,-100.00,NNE,15,3.0,7.0,96,0.00,,,0.27,0.000000,,2013-10-25 06:41:00,
2013-10-25 02:51:00,33.0,32.0,-100.00,NNE,15,3.0,7.0,96,0.00,,,0.27,0.000000,,2013-10-25 06:51:00,
2013-10-25 03:01:00,33.0,32.0,-100.00,NNE,15,3.0,7.0,96,0.00,,,0.27,0.000000,,2013-10-25 07:01:00,
2013-10-25 03:41:00,30.0,29.0,-100.00,WSW,245,3.0,4.0,95,0.00,,,0.27,0.000000,,2013-10-25 07:41:00,
2013-10-25 03:51:00,30.0,29.0,-100.00,WSW,245,3.0,4.0,95,0.00,,,0.27,0.000000,,2013-10-25 07:51:00,
2013-10-25 04:01:00,30.0,29.0,-100.00,WSW,245,3.0,4.0,95,0.00,,,0.27,0.000000,,2013-10-25 08:01:00,
2013-10-25 04:21:00,31.0,30.0,-100.00,SSW,194,3.0,5.0,96,0.00,,,0.27,0.000000,,2013-10-25 08:21:00,
2013-10-25 04:31:00,31.0,30.0,-100.00,SSW,194,3.0,5.0,96,0.00,,,0.27,0.000000,,2013-10-25 08:31:00,
2013-10-25 04:41:00,31.0,30.0,-100.00,SSW,194,3.0,5.0,96,0.00,,,0.27,0.000000,,2013-10-25 08:41:00,
2013-10-25 04:51:00,31.0,30.0,-100.00,SSW,194,3.0,5.0,96,0.00,,,0.27,0.000000,,2013-10-25 08:51:00,
2013-10-25 05:01:00,31.0,30.0,-100.00,SSW,194,3.0,5.0,96,0.00,,,0.27,0.000000,,2013-10-25 09:01:00,
2013-10-25 05:42:00,31.0,30.0,-100.00,WNW,286,2.0,6.0,96,0.00,,,0.27,0.000000,,2013-10-25 09:42:00,
2013-10-25 05:52:00,31.0,30.0,-100.00,WNW,286,2.0,6.0,96,0.00,,,0.27,0.000000,,2013-10-25 09:52:00,
2013-10-25 06:01:00,31.0,30.0,-100.00,WNW,286,2.0,6.0,96,0.00,,,0.27,0.000000,,2013-10-25 10:01:00,
2013-10-25 06:22:00,32.0,31.0,-100.00,WSW,258,5.0,8.0,97,0.00,,,0.27,0.000000,,2013-10-25 10:22:00,
2013-10-25 06:32:00,32.0,31.0,-100.00,WSW,258,5.0,8.0,97,0.00,,,0.27,0.000000,,2013-10-25 10:32:00,
2013-10-25 06:41:00,32.0,31.0,-100.00,WSW,258,5.0,8.0,97,0.00,,,0.27,0.000000,,2013-10-25 10:41:00,
2013-10-25 06:52:00,32.0,31.0,-100.00,WSW,258,5.0,8.0,97,0.00,,,0.27,0.000000,,2013-10-25 10:52:00,
2013-10-25 07:02:00,32.0,31.0,-100.00,WSW,258,5.0,8.0,97,0.00,,,0.27,0.000000,,2013-10-25 11:02:00,
2013-10-25 07:41:00,32.0,31.0,-100.00,West,270,4.0,9.0,96,0.00,,,0.27,0.000000,,2013-10-25 11:41:00,
2013-10-25 07:51:00,32.0,31.0,-100.00,West,270,4.0,9.0,96,0.00,,,0.27,0.000000,,2013-10-25 11:51:00,
2013-10-25 08:01:00,32.0,31.0,-100.00,West,270,4.0,9.0,96,0.00,,,0.27,0.000000,,2013-10-25 12:01:00,
2013-10-25 08:41:00,32.0,31.0,-100.00,WNW,286,5.0,8.0,96,0.00,,,0.27,0.000000,,2013-10-25 12:41:00,
2013-10-25 08:51:00,32.0,31.0,-100.00,WNW,286,5.0,8.0,96,0.00,,,0.27,0.000000,,2013-10-25 12:51:00,
2013-10-25 09:02:00,32.0,31.0,-100.00,WNW,286,5.0,8.0,96,0.00,,,0.27,0.000000,,2013-10-25 13:02:00,
2013-10-25 09:42:00,32.0,31.0,-100.00,West,260,5.0,8.0,97,0.00,,,0.27,11.000000,,2013-10-25 13:42:00,
2013-10-25 09:52:00,32.0,31.0,-100.00,West,260,5.0,8.0,97,0.00,,,0.27,11.000000,,2013-10-25 13:52:00,
2013-10-25 10:02:00,32.0,31.0,-100.00,West,260,5.0,8.0,97,0.00,,,0.27,11.000000,,2013-10-25 14:02:00,
2013-10-25 10:22:00,35.0,33.0,-100.00,West,259,6.0,9.0,93,0.02,,,0.29,197.000000,,2013-10-25 14:22:00,
2013-10-25 10:32:00,35.0,33.0,-100.00,West,259,6.0,9.0,93,0.02,,,0.29,197.000000,,2013-10-25 14:32:00,
2013-10-25 10:42:00,35.0,33.0,-100.00,West,259,6.0,9.0,93,0.02,,,0.29,197.000000,,2013-10-25 14:42:00,
2013-10-25 10:52:00,35.0,33.0,-100.00,West,259,6.0,9.0,93,0.02,,,0.29,197.000000,,2013-10-25 14:52:00,
2013-10-25 11:01:00,35.0,33.0,-100.00,West,259,6.0,9.0,93,0.02,,,0.29,197.000000,,2013-10-25 15:01:00,
2013-10-25 11:22:00,36.0,34.0,-100.00,West,268,9.0,11.0,93,0.02,,,0.27,149.000000,,2013-10-25 15:22:00,
2013-10-25 11:33:00,36.0,34.0,-100.00,West,268,9.0,11.0,93,0.02,,,0.27,149.000000,,2013-10-25 15:33:00,
2013-10-25 11:43:00,36.0,34.0,-100.00,West,268,9.0,11.0,93,0.02,,,0.27,149.000000,,2013-10-25 15:43:00,
2013-10-25 11:53:00,36.0,34.0,-100.00,West,268,9.0,11.0,93,0.02,,,0.27,149.000000,,2013-10-25 15:53:00,
2013-10-25 12:03:00,36.0,34.0,-100.00,West,268,9.0,11.0,93,0.02,,,0.27,149.000000,,2013-10-25 16:03:00,
2013-10-25 12:43:00,40.0,35.0,-100.00,West,278,8.0,15.0,82,0.00,,,0.09,360.000000,,2013-10-25 16:43:00,
2013-10-25 12:53:00,40.0,35.0,-100.00,West,278,8.0,15.0,82,0.00,,,0.09,360.000000,,2013-10-25 16:53:00,
2013-10-25 13:03:00,40.0,35.0,-100.00,West,278,8.0,15.0,82,0.00,,,0.09,360.000000,,2013-10-25 17:03:00,
2013-10-25 13:23:00,42.0,35.0,-100.00,West,269,10.0,14.0,75,0.00,,,0.07,390.000000,,2013-10-25 17:23:00,
2013-10-25 13:33:00,42.0,35.0,-100.00,West,269,10.0,14.0,75,0.00,,,0.07,390.000000,,2013-10-25 17:33:00,
2013-10-25 13:43:00,42.0,35.0,-100.00,West,269,10.0,14.0,75,0.00,,,0.07,390.000000,,2013-10-25 17:43:00,
2013-10-25 13:52:00,42.0,35.0,-100.00,West,269,10.0,14.0,75,0.00,,,0.07,390.000000,,2013-10-25 17:52:00,
2013-10-25 14:02:00,42.0,35.0,-100.00,West,269,10.0,14.0,75,0.00,,,0.07,390.000000,,2013-10-25 18:02:00,
2013-10-25 14:42:00,42.0,31.0,-100.00,West,263,8.0,15.0,66,0.00,,,0.06,384.000000,,2013-10-25 18:42:00,
2013-10-25 14:52:00,42.0,31.0,-100.00,West,263,8.0,15.0,66,0.00,,,0.06,384.000000,,2013-10-25 18:52:00,
2013-10-25 15:02:00,42.0,31.0,-100.00,West,263,8.0,15.0,66,0.00,,,0.06,384.000000,,2013-10-25 19:02:00,
2013-10-25 15:42:00,43.0,27.0,-100.00,WSW,254,10.0,16.0,53,0.00,,,0.06,352.000000,,2013-10-25 19:42:00,
2013-10-25 15:52:00,43.0,27.0,-100.00,WSW,254,10.0,16.0,53,0.00,,,0.06,352.000000,,2013-10-25 19:52:00,
2013-10-25 16:02:00,43.0,27.0,-100.00,WSW,254,10.0,16.0,53,0.00,,,0.06,352.000000,,2013-10-25 20:02:00,
2013-10-25 16:22:00,43.0,28.0,-100.00,WSW,246,9.0,17.0,54,0.00,,,0.06,234.000000,,2013-10-25 20:22:00,
2013-10-25 16:32:00,43.0,28.0,-100.00,WSW,246,9.0,17.0,54,0.00,,,0.06,234.000000,,2013-10-25 20:32:00,
2013-10-25 16:42:00,43.0,28.0,-100.00,WSW,246,9.0,17.0,54,0.00,,,0.06,234.000000,,2013-10-25 20:42:00,
2013-10-25 16:52:00,43.0,28.0,-100.00,WSW,246,9.0,17.0,54,0.00,,,0.06,234.000000,,2013-10-25 20:52:00,
2013-10-25 17:02:00,43.0,28.0,-100.00,WSW,246,9.0,17.0,54,0.00,,,0.06,234.000000,,2013-10-25 21:02:00,
2013-10-25 17:04:00,41.0,24.0,-100.00,WSW,242,11.0,20.0,51,0.00,,,0.06,111.000000,,2013-10-25 21:04:00,
2013-10-25 17:43:00,41.0,24.0,-100.00,WSW,242,11.0,20.0,51,0.00,,,0.06,111.000000,,2013-10-25 21:43:00,
2013-10-25 17:54:00,41.0,24.0,-100.00,WSW,242,11.0,20.0,51,0.00,,,0.06,111.000000,,2013-10-25 21:54:00,
2013-10-25 18:42:00,40.0,25.0,-100.00,SW,234,9.0,17.0,55,0.00,,,0.06,33.000000,,2013-10-25 22:42:00,
2013-10-25 18:53:00,40.0,25.0,-100.00,SW,234,9.0,17.0,55,0.00,,,0.06,33.000000,,2013-10-25 22:53:00,
2013-10-25 19:03:00,40.0,25.0,-100.00,SW,234,9.0,17.0,55,0.00,,,0.06,33.000000,,2013-10-25 23:03:00,
2013-10-25 19:23:00,40.0,27.0,-100.00,SW,216,11.0,15.0,59,0.00,,,0.06,2.000000,,2013-10-25 23:23:00,
2013-10-25 19:34:00,40.0,27.0,-100.00,SW,216,11.0,15.0,59,0.00,,,0.06,2.000000,,2013-10-25 23:34:00,
2013-10-25 19:42:00,40.0,27.0,-100.00,SW,216,11.0,15.0,59,0.00,,,0.06,2.000000,,2013-10-25 23:42:00,
2013-10-25 19:52:00,40.0,27.0,-100.00,SW,216,11.0,15.0,59,0.00,,,0.06,2.000000,,2013-10-25 23:52:00,
2013-10-25 20:02:00,40.0,27.0,-100.00,SW,216,11.0,15.0,59,0.00,,,0.06,2.000000,,2013-10-26 00:02:00,
2013-10-25 20:22:00,41.0,29.0,-100.00,SW,218,10.0,19.0,62,0.00,,,0.06,0.000000,,2013-10-26 00:22:00,
2013-10-25 20:32:00,41.0,29.0,-100.00,SW,218,10.0,19.0,62,0.00,,,0.06,0.000000,,2013-10-26 00:32:00,
2013-10-25 20:42:00,41.0,29.0,-100.00,SW,218,10.0,19.0,62,0.00,,,0.06,0.000000,,2013-10-26 00:42:00,
2013-10-25 20:52:00,41.0,29.0,-100.00,SW,218,10.0,19.0,62,0.00,,,0.06,0.000000,,2013-10-26 00:52:00,
2013-10-25 21:01:00,41.0,29.0,-100.00,SW,218,10.0,19.0,62,0.00,,,0.06,0.000000,,2013-10-26 01:01:00,
2013-10-25 21:42:00,43.0,30.0,-100.00,SW,225,14.0,22.0,60,0.00,,,0.06,0.000000,,2013-10-26 01:42:00,
2013-10-25 21:52:00,43.0,30.0,-100.00,SW,225,14.0,22.0,60,0.00,,,0.06,0.000000,,2013-10-26 01:52:00,
2013-10-25 22:02:00,43.0,30.0,-100.00,SW,225,14.0,22.0,60,0.00,,,0.06,0.000000,,2013-10-26 02:02:00,
2013-10-25 22:43:00,40.0,31.0,-100.00,SW,232,11.0,23.0,71,0.00,,,0.04,0.000000,,2013-10-26 02:43:00,
2013-10-25 22:52:00,40.0,31.0,-100.00,SW,232,11.0,23.0,71,0.00,,,0.04,0.000000,,2013-10-26 02:52:00,
2013-10-25 23:02:00,40.0,31.0,-100.00,SW,232,11.0,23.0,71,0.00,,,0.04,0.000000,,2013-10-26 03:02:00,
2013-10-25 23:04:00,40.0,37.0,-100.00,SW,215,13.0,27.0,88,0.05,,,0.09,0.000000,,2013-10-26 03:04:00,
2013-10-25 23:22:00,40.0,37.0,-100.00,SW,215,13.0,27.0,88,0.05,,,0.09,0.000000,,2013-10-26 03:22:00,
2013-10-25 23:35:00,40.0,37.0,-100.00,SW,215,13.0,27.0,88,0.05,,,0.09,0.000000,,2013-10-26 03:35:00,
2013-10-25 23:45:00,40.0,37.0,-100.00,SW,215,13.0,27.0,88,0.05,,,0.09,0.000000,,2013-10-26 03:45:00,
2013-10-25 23:54:00,40.0,37.0,-100.00,SW,215,13.0,27.0,88,0.05,,,0.09,0.000000,,2013-10-26 03:54:00,